KPZQ METAR Reports


Rogers City, Presque Isle County Airport, MI, United States (KPZQ) 45-24-25N 083-48-46W
Feb 18, 2018 - 10:35 PM EST / 2018.02.19 0335 UTC
Wind: from the S (170 degrees) at 14 MPH (12 KT) gusting to 26 MPH (23 KT):0
Visibility: 10 mile(s):0
Sky conditions: clear
Temperature: 33.4 F (0.8 C)
Windchill: 23 F (-5 C):1
Dew Point: 24.1 F (-4.4 C)
Relative Humidity: 68%
Pressure (altimeter): 29.95 in. Hg (1014 hPa)
ob: KPZQ 190335Z AUTO 17012G23KT 10SM CLR 01/M04 A2995 RMK AO2 T00081044
cycle: 3

 

Rogers City METAR Meteogram

Nearby METAR Reports

KPZQ - Rogers City, Michigan, USA
Distance from station: SSW 1mi, 2km
Updated: Sun, 18-Feb-2018 10:35pm EST
Clear
Clear
 Wind from S
Wind: S 14 mph , 22 km/h, Gust: 26 mph , 43 km/h
Temperature: 34°F , 1°C
Wind Chill: 25°F , -4°C
Dew Point: 25°F , -4°C
Humidity: 70%
Barometer: 29.95 inHg , 1014.2 hPa
Clouds: Clear
Visibility: 10 miles , 16 km
2018/02/19 03:35 KPZQ 190335Z AUTO 17012G23KT 10SM CLR 01/M04 A2995 RMK AO2 T00081044
KAPN - Alpena, Michigan, USA
Distance from station: SSE 27mi, 43km
Updated: Sun, 18-Feb-2018 9:54pm EST
NOT Current
Clear
Clear
 Wind from SSE
Wind: SSE 18 mph , 30 km/h
Temperature: 34°F , 1°C
Wind Chill: 23°F , -5°C
Dew Point: 27°F , -3°C
Humidity: 75%
Barometer: 30.00 inHg , 1015.9 hPa
Clouds: Clear
Visibility: 10 miles , 16 km
2018/02/19 02:54 KAPN 190254Z AUTO 15016KT 10SM CLR 01/M03 A3000 RMK AO2 SLP168 T00111033 58037
 
KSLH - Cheboygan, Michigan, USA
Distance from station: WNW 38mi, 61km
Updated: Sun, 18-Feb-2018 10:35pm EST
Mostly cloudy
Mostly cloudy
 Wind from S
Wind: S 7 mph , 11 km/h
Temperature: 36°F , 2°C
Wind Chill: 30°F , -1°C
Dew Point: 21°F , -6°C
Humidity: 56%
Barometer: 29.92 inHg , 1013.2 hPa
Clouds: Mostly cloudy
Visibility: 10 miles , 16 km
Cloud details: Mostly cloudy 12000 ft
2018/02/19 03:35 KSLH 190335Z AUTO 17006KT 10SM BKN120 02/M06 A2992 RMK AO2 T00201060
KDRM - Drummond Is, Michigan, USA
Distance from station: N 40mi, 65km
Updated: Sun, 18-Feb-2018 10:35pm EST
Mostly cloudy
Mostly cloudy
 Wind from SSE
Wind: SSE 9 mph , 15 km/h, Gust: 16 mph , 26 km/h
Temperature: 32°F , 0°C
Wind Chill: 24°F , -4°C
Dew Point: 27°F , -3°C
Humidity: 80%
Barometer: 29.97 inHg , 1014.9 hPa
Clouds: Mostly cloudy
Visibility: 10 miles , 16 km
Cloud details: Mostly cloudy 12000 ft
2018/02/19 03:35 KDRM 190335Z AUTO 15008G14KT 10SM BKN120 00/M03 A2997 RMK AO2 T00001030
 
KPLN - Pellston, Michigan, USA
Distance from station: WNW 49mi, 79km
Updated: Sun, 18-Feb-2018 9:54pm EST
NOT Current
Few Clouds
Few Clouds
 Wind from S
Wind: S 10 mph , 17 km/h
Temperature: 36°F , 2°C
Wind Chill: 29°F , -2°C
Dew Point: 19°F , -7°C
Humidity: 52%
Barometer: 29.91 inHg , 1012.9 hPa
Clouds: Few Clouds
Visibility: 10 miles , 16 km
Cloud details: Few Clouds 12000 ft
2018/02/19 02:54 KPLN 190254Z AUTO 17009KT 10SM FEW120 02/M07 A2991 RMK AO2 SLP139 T00221067 56027
KMCD - Mackinac Island, Michigan, USA
Distance from station: NW 50mi, 80km
Updated: Sun, 18-Feb-2018 10:35pm EST
Partly cloudy
Partly cloudy
 Wind from SSE
Wind: SSE 8 mph , 13 km/h
Temperature: 34°F , 1°C
Wind Chill: 27°F , -3°C
Dew Point: 21°F , -6°C
Humidity: 60%
Barometer: 29.92 inHg , 1013.2 hPa
Clouds: Partly cloudy
Visibility: 10 miles , 16 km
Cloud details: Partly cloudy 12000 ft
2018/02/19 03:35 KMCD 190335Z AUTO 16007KT 10SM SCT120 01/M06 A2992 RMK AO2 T00131064